Strona główna
METAR-TAF:

METAR-TAF

Lotnisko :

Wittering, Anglia

Szerokość geograficzna: 52-37N, Długość geograficzna: 000-28W, wysokość: 84 m

Aktualna obserwacja pogody

Raport powstał 34 minut temu, godzina 08:50 UTC
Wiatr 11 kt od południowy zachód
Temperatura 18°C
Wilgotność 73%
Ciśnienie 1019 hPa
Widzialność 10 km lub więcej

METAR: EGXT 210850Z AUTO 23011KT 9999 OVC060/// 18/13 Q1019

czas: 10:24 (09:24 UTC)


TAF: brakujący

Obserwacja i prognoza pogody dla ponad 4000 lotnisk (raport METAR i TAF).

Dostępne stacje oznaczono żółtymi i czerwonymi punktami na mapie.

Najedź kursorem aby zobaczyć nazwę stacji.

Kliknij aby zobaczyć obserwacje i prognozy pogody.

Aby zmienić mapę: kliknij na zielony przycisk z czarnym krzyżykiem, aby powiększyć; na zielony przycisk z myślnikiem, aby pomniejszyć; na zielone strzałki, aby przejść do map sąsiednich.


METAR-TAF: